sensor_id;sensor_type;location;lat;lon;timestamp;P1;durP1;ratioP1;P2;durP2;ratioP2
22841;SDS011;11587;47.064;15.444;2023-08-31T00:02:18;0.10;;;0.10;;
22841;SDS011;11587;47.064;15.444;2023-08-31T00:04:44;0.10;;;0.10;;
22841;SDS011;11587;47.064;15.444;2023-08-31T00:07:10;0.10;;;0.10;;
22841;SDS011;11587;47.064;15.444;2023-08-31T00:09:39;0.10;;;0.10;;
22841;SDS011;11587;47.064;15.444;2023-08-31T00:12:05;0.10;;;0.10;;
22841;SDS011;11587;47.064;15.444;2023-08-31T00:14:31;0.10;;;0.10;;
22841;SDS011;11587;47.064;15.444;2023-08-31T00:16:57;0.10;;;0.10;;
22841;SDS011;11587;47.064;15.444;2023-08-31T00:19:23;0.10;;;0.10;;
22841;SDS011;11587;47.064;15.444;2023-08-31T00:21:49;0.10;;;0.10;;
22841;SDS011;11587;47.064;15.444;2023-08-31T00:24:15;0.10;;;0.10;;
22841;SDS011;11587;47.064;15.444;2023-08-31T00:26:41;0.10;;;0.10;;
22841;SDS011;11587;47.064;15.444;2023-08-31T00:29:11;0.10;;;0.10;;
22841;SDS011;11587;47.064;15.444;2023-08-31T00:31:39;0.10;;;0.10;;
22841;SDS011;11587;47.064;15.444;2023-08-31T00:34:07;0.10;;;0.10;;
22841;SDS011;11587;47.064;15.444;2023-08-31T00:39:05;0.10;;;0.10;;
22841;SDS011;11587;47.064;15.444;2023-08-31T00:41:33;0.10;;;0.10;;
22841;SDS011;11587;47.064;15.444;2023-08-31T00:43:59;0.10;;;0.10;;
22841;SDS011;11587;47.064;15.444;2023-08-31T00:46:25;0.10;;;0.10;;
22841;SDS011;11587;47.064;15.444;2023-08-31T00:48:53;0.10;;;0.10;;
22841;SDS011;11587;47.064;15.444;2023-08-31T00:51:19;0.10;;;0.10;;
22841;SDS011;11587;47.064;15.444;2023-08-31T00:53:45;0.10;;;0.10;;
22841;SDS011;11587;47.064;15.444;2023-08-31T00:56:11;0.10;;;0.10;;
22841;SDS011;11587;47.064;15.444;2023-08-31T00:58:38;0.10;;;0.10;;
22841;SDS011;11587;47.064;15.444;2023-08-31T01:03:50;0.10;;;0.10;;
22841;SDS011;11587;47.064;15.444;2023-08-31T01:08:56;0.10;;;0.10;;
22841;SDS011;11587;47.064;15.444;2023-08-31T01:13:55;0.10;;;0.10;;
22841;SDS011;11587;47.064;15.444;2023-08-31T01:16:23;0.20;;;0.20;;
22841;SDS011;11587;47.064;15.444;2023-08-31T01:18:50;0.10;;;0.10;;
22841;SDS011;11587;47.064;15.444;2023-08-31T01:23:52;0.10;;;0.10;;
22841;SDS011;11587;47.064;15.444;2023-08-31T01:26:19;0.10;;;0.10;;
22841;SDS011;11587;47.064;15.444;2023-08-31T01:28:45;0.10;;;0.10;;
22841;SDS011;11587;47.064;15.444;2023-08-31T01:31:12;0.10;;;0.10;;
22841;SDS011;11587;47.064;15.444;2023-08-31T01:33:38;0.10;;;0.10;;
22841;SDS011;11587;47.064;15.444;2023-08-31T01:36:06;0.10;;;0.10;;
22841;SDS011;11587;47.064;15.444;2023-08-31T01:38:33;0.10;;;0.10;;
22841;SDS011;11587;47.064;15.444;2023-08-31T01:41:05;0.10;;;0.10;;
22841;SDS011;11587;47.064;15.444;2023-08-31T01:43:32;0.10;;;0.10;;
22841;SDS011;11587;47.064;15.444;2023-08-31T01:45:58;0.10;;;0.10;;
22841;SDS011;11587;47.064;15.444;2023-08-31T01:48:24;0.10;;;0.10;;
22841;SDS011;11587;47.064;15.444;2023-08-31T01:50:50;0.10;;;0.10;;
22841;SDS011;11587;47.064;15.444;2023-08-31T01:53:16;0.10;;;0.10;;
22841;SDS011;11587;47.064;15.444;2023-08-31T01:55:42;0.10;;;0.10;;
22841;SDS011;11587;47.064;15.444;2023-08-31T01:58:08;0.10;;;0.10;;
22841;SDS011;11587;47.064;15.444;2023-08-31T02:00:34;0.10;;;0.10;;
22841;SDS011;11587;47.064;15.444;2023-08-31T02:03:03;0.10;;;0.10;;
22841;SDS011;11587;47.064;15.444;2023-08-31T02:05:29;0.10;;;0.10;;
22841;SDS011;11587;47.064;15.444;2023-08-31T02:07:55;0.10;;;0.10;;
22841;SDS011;11587;47.064;15.444;2023-08-31T02:10:21;0.10;;;0.10;;
22841;SDS011;11587;47.064;15.444;2023-08-31T02:12:47;0.10;;;0.10;;
22841;SDS011;11587;47.064;15.444;2023-08-31T02:15:13;0.10;;;0.10;;
22841;SDS011;11587;47.064;15.444;2023-08-31T02:17:39;0.10;;;0.10;;
22841;SDS011;11587;47.064;15.444;2023-08-31T02:20:05;0.10;;;0.10;;
22841;SDS011;11587;47.064;15.444;2023-08-31T02:22:33;0.10;;;0.10;;
22841;SDS011;11587;47.064;15.444;2023-08-31T02:25:00;0.10;;;0.10;;
22841;SDS011;11587;47.064;15.444;2023-08-31T02:27:26;0.20;;;0.20;;
22841;SDS011;11587;47.064;15.444;2023-08-31T02:29:52;0.20;;;0.20;;
22841;SDS011;11587;47.064;15.444;2023-08-31T02:32:18;0.20;;;0.20;;
22841;SDS011;11587;47.064;15.444;2023-08-31T02:34:44;0.20;;;0.20;;
22841;SDS011;11587;47.064;15.444;2023-08-31T02:37:10;0.20;;;0.20;;
22841;SDS011;11587;47.064;15.444;2023-08-31T02:39:36;0.17;;;0.17;;
22841;SDS011;11587;47.064;15.444;2023-08-31T02:42:03;0.20;;;0.20;;
22841;SDS011;11587;47.064;15.444;2023-08-31T02:44:30;0.10;;;0.10;;
22841;SDS011;11587;47.064;15.444;2023-08-31T02:46:56;0.10;;;0.10;;
22841;SDS011;11587;47.064;15.444;2023-08-31T02:49:22;0.10;;;0.10;;
22841;SDS011;11587;47.064;15.444;2023-08-31T02:51:48;0.10;;;0.10;;
22841;SDS011;11587;47.064;15.444;2023-08-31T02:54:14;0.10;;;0.10;;
22841;SDS011;11587;47.064;15.444;2023-08-31T02:56:41;0.10;;;0.10;;
22841;SDS011;11587;47.064;15.444;2023-08-31T02:59:07;0.10;;;0.10;;
22841;SDS011;11587;47.064;15.444;2023-08-31T03:01:33;0.10;;;0.10;;
22841;SDS011;11587;47.064;15.444;2023-08-31T03:04:00;0.10;;;0.10;;
22841;SDS011;11587;47.064;15.444;2023-08-31T03:06:26;0.20;;;0.20;;
22841;SDS011;11587;47.064;15.444;2023-08-31T03:08:52;0.13;;;0.13;;
22841;SDS011;11587;47.064;15.444;2023-08-31T03:11:18;0.20;;;0.20;;
22841;SDS011;11587;47.064;15.444;2023-08-31T03:13:44;0.20;;;0.20;;
22841;SDS011;11587;47.064;15.444;2023-08-31T03:16:10;0.20;;;0.20;;
22841;SDS011;11587;47.064;15.444;2023-08-31T03:18:36;0.20;;;0.20;;
22841;SDS011;11587;47.064;15.444;2023-08-31T03:21:02;0.20;;;0.20;;
22841;SDS011;11587;47.064;15.444;2023-08-31T03:23:29;0.20;;;0.20;;
22841;SDS011;11587;47.064;15.444;2023-08-31T03:25:55;0.20;;;0.20;;
22841;SDS011;11587;47.064;15.444;2023-08-31T03:28:21;0.20;;;0.20;;
22841;SDS011;11587;47.064;15.444;2023-08-31T03:30:53;0.10;;;0.10;;
22841;SDS011;11587;47.064;15.444;2023-08-31T03:33:19;0.20;;;0.20;;
22841;SDS011;11587;47.064;15.444;2023-08-31T03:35:45;0.20;;;0.20;;
22841;SDS011;11587;47.064;15.444;2023-08-31T03:38:12;0.20;;;0.20;;
22841;SDS011;11587;47.064;15.444;2023-08-31T03:40:38;0.20;;;0.20;;
22841;SDS011;11587;47.064;15.444;2023-08-31T03:43:04;0.13;;;0.13;;
22841;SDS011;11587;47.064;15.444;2023-08-31T03:45:30;0.20;;;0.20;;
22841;SDS011;11587;47.064;15.444;2023-08-31T03:47:56;0.20;;;0.20;;
22841;SDS011;11587;47.064;15.444;2023-08-31T03:50:22;0.10;;;0.10;;
22841;SDS011;11587;47.064;15.444;2023-08-31T03:52:48;0.20;;;0.20;;
22841;SDS011;11587;47.064;15.444;2023-08-31T03:55:14;0.20;;;0.20;;
22841;SDS011;11587;47.064;15.444;2023-08-31T03:57:40;0.10;;;0.10;;
22841;SDS011;11587;47.064;15.444;2023-08-31T04:00:06;0.10;;;0.10;;
22841;SDS011;11587;47.064;15.444;2023-08-31T04:02:37;0.10;;;0.10;;
22841;SDS011;11587;47.064;15.444;2023-08-31T04:05:03;0.10;;;0.10;;
22841;SDS011;11587;47.064;15.444;2023-08-31T04:07:31;0.10;;;0.10;;
22841;SDS011;11587;47.064;15.444;2023-08-31T04:09:57;0.10;;;0.10;;
22841;SDS011;11587;47.064;15.444;2023-08-31T04:12:23;0.10;;;0.10;;
22841;SDS011;11587;47.064;15.444;2023-08-31T04:14:49;0.20;;;0.20;;
22841;SDS011;11587;47.064;15.444;2023-08-31T04:17:15;0.20;;;0.20;;
22841;SDS011;11587;47.064;15.444;2023-08-31T04:19:41;0.20;;;0.20;;
22841;SDS011;11587;47.064;15.444;2023-08-31T04:22:07;0.20;;;0.20;;
22841;SDS011;11587;47.064;15.444;2023-08-31T04:24:33;0.17;;;0.17;;
22841;SDS011;11587;47.064;15.444;2023-08-31T04:26:59;0.15;;;0.15;;
22841;SDS011;11587;47.064;15.444;2023-08-31T04:29:26;0.20;;;0.20;;
22841;SDS011;11587;47.064;15.444;2023-08-31T04:31:52;0.20;;;0.20;;
22841;SDS011;11587;47.064;15.444;2023-08-31T04:34:18;0.20;;;0.20;;
22841;SDS011;11587;47.064;15.444;2023-08-31T04:36:44;0.20;;;0.20;;
22841;SDS011;11587;47.064;15.444;2023-08-31T04:39:16;0.20;;;0.20;;
22841;SDS011;11587;47.064;15.444;2023-08-31T04:41:42;0.20;;;0.20;;
22841;SDS011;11587;47.064;15.444;2023-08-31T04:44:08;0.20;;;0.20;;
22841;SDS011;11587;47.064;15.444;2023-08-31T04:46:34;0.20;;;0.20;;
22841;SDS011;11587;47.064;15.444;2023-08-31T04:49:00;0.20;;;0.20;;
22841;SDS011;11587;47.064;15.444;2023-08-31T04:51:30;0.20;;;0.20;;
22841;SDS011;11587;47.064;15.444;2023-08-31T04:53:57;0.20;;;0.20;;
22841;SDS011;11587;47.064;15.444;2023-08-31T04:56:23;0.20;;;0.20;;
22841;SDS011;11587;47.064;15.444;2023-08-31T04:58:49;0.20;;;0.20;;
22841;SDS011;11587;47.064;15.444;2023-08-31T05:01:15;0.20;;;0.20;;
22841;SDS011;11587;47.064;15.444;2023-08-31T05:03:41;0.10;;;0.10;;
22841;SDS011;11587;47.064;15.444;2023-08-31T05:06:07;0.20;;;0.20;;
22841;SDS011;11587;47.064;15.444;2023-08-31T05:08:33;0.20;;;0.20;;
22841;SDS011;11587;47.064;15.444;2023-08-31T05:10:59;0.10;;;0.10;;
22841;SDS011;11587;47.064;15.444;2023-08-31T05:13:25;0.20;;;0.20;;
22841;SDS011;11587;47.064;15.444;2023-08-31T05:15:51;0.10;;;0.10;;
22841;SDS011;11587;47.064;15.444;2023-08-31T05:18:17;0.20;;;0.20;;
22841;SDS011;11587;47.064;15.444;2023-08-31T05:20:46;0.20;;;0.20;;
22841;SDS011;11587;47.064;15.444;2023-08-31T05:23:13;0.20;;;0.20;;
22841;SDS011;11587;47.064;15.444;2023-08-31T05:25:43;0.20;;;0.20;;
22841;SDS011;11587;47.064;15.444;2023-08-31T05:28:09;0.10;;;0.10;;
22841;SDS011;11587;47.064;15.444;2023-08-31T05:30:45;0.20;;;0.20;;
22841;SDS011;11587;47.064;15.444;2023-08-31T05:33:11;0.20;;;0.20;;
22841;SDS011;11587;47.064;15.444;2023-08-31T05:35:37;0.20;;;0.20;;
22841;SDS011;11587;47.064;15.444;2023-08-31T05:38:03;0.20;;;0.20;;
22841;SDS011;11587;47.064;15.444;2023-08-31T05:40:29;0.20;;;0.20;;
22841;SDS011;11587;47.064;15.444;2023-08-31T05:42:55;0.20;;;0.20;;
22841;SDS011;11587;47.064;15.444;2023-08-31T05:45:21;0.20;;;0.20;;
22841;SDS011;11587;47.064;15.444;2023-08-31T05:47:48;0.20;;;0.20;;
22841;SDS011;11587;47.064;15.444;2023-08-31T05:50:14;0.20;;;0.20;;
22841;SDS011;11587;47.064;15.444;2023-08-31T05:52:40;0.20;;;0.20;;
22841;SDS011;11587;47.064;15.444;2023-08-31T05:55:09;0.20;;;0.20;;
22841;SDS011;11587;47.064;15.444;2023-08-31T05:57:35;0.20;;;0.20;;
22841;SDS011;11587;47.064;15.444;2023-08-31T06:00:03;0.10;;;0.10;;
22841;SDS011;11587;47.064;15.444;2023-08-31T06:02:29;0.20;;;0.20;;
22841;SDS011;11587;47.064;15.444;2023-08-31T06:04:55;0.20;;;0.20;;
22841;SDS011;11587;47.064;15.444;2023-08-31T06:07:21;0.10;;;0.10;;
22841;SDS011;11587;47.064;15.444;2023-08-31T06:09:47;0.10;;;0.10;;
22841;SDS011;11587;47.064;15.444;2023-08-31T06:12:13;0.10;;;0.10;;
22841;SDS011;11587;47.064;15.444;2023-08-31T06:14:39;0.20;;;0.20;;
22841;SDS011;11587;47.064;15.444;2023-08-31T06:17:05;0.20;;;0.20;;
22841;SDS011;11587;47.064;15.444;2023-08-31T06:19:31;0.20;;;0.20;;
22841;SDS011;11587;47.064;15.444;2023-08-31T06:21:57;0.10;;;0.10;;
22841;SDS011;11587;47.064;15.444;2023-08-31T06:24:23;0.20;;;0.20;;
22841;SDS011;11587;47.064;15.444;2023-08-31T06:26:49;0.10;;;0.10;;
22841;SDS011;11587;47.064;15.444;2023-08-31T06:29:15;0.20;;;0.20;;
22841;SDS011;11587;47.064;15.444;2023-08-31T06:31:41;0.20;;;0.20;;
22841;SDS011;11587;47.064;15.444;2023-08-31T06:34:07;0.10;;;0.10;;
22841;SDS011;11587;47.064;15.444;2023-08-31T06:36:33;0.20;;;0.20;;
22841;SDS011;11587;47.064;15.444;2023-08-31T06:38:59;0.10;;;0.10;;
22841;SDS011;11587;47.064;15.444;2023-08-31T06:41:25;0.10;;;0.10;;
22841;SDS011;11587;47.064;15.444;2023-08-31T06:43:51;0.20;;;0.20;;
22841;SDS011;11587;47.064;15.444;2023-08-31T06:46:17;0.20;;;0.20;;
22841;SDS011;11587;47.064;15.444;2023-08-31T06:48:43;0.20;;;0.20;;
22841;SDS011;11587;47.064;15.444;2023-08-31T06:51:09;0.20;;;0.20;;
22841;SDS011;11587;47.064;15.444;2023-08-31T06:53:35;0.10;;;0.10;;
22841;SDS011;11587;47.064;15.444;2023-08-31T06:56:02;0.10;;;0.10;;
22841;SDS011;11587;47.064;15.444;2023-08-31T06:58:28;0.10;;;0.10;;
22841;SDS011;11587;47.064;15.444;2023-08-31T07:00:55;0.10;;;0.10;;
22841;SDS011;11587;47.064;15.444;2023-08-31T07:03:21;0.10;;;0.10;;
22841;SDS011;11587;47.064;15.444;2023-08-31T07:05:47;0.10;;;0.10;;
22841;SDS011;11587;47.064;15.444;2023-08-31T07:08:13;0.10;;;0.10;;
22841;SDS011;11587;47.064;15.444;2023-08-31T07:10:39;0.20;;;0.20;;
22841;SDS011;11587;47.064;15.444;2023-08-31T07:13:05;0.10;;;0.10;;
22841;SDS011;11587;47.064;15.444;2023-08-31T07:15:32;0.10;;;0.10;;
22841;SDS011;11587;47.064;15.444;2023-08-31T07:17:58;0.20;;;0.20;;
22841;SDS011;11587;47.064;15.444;2023-08-31T07:20:24;0.10;;;0.10;;
22841;SDS011;11587;47.064;15.444;2023-08-31T07:22:50;0.10;;;0.10;;
22841;SDS011;11587;47.064;15.444;2023-08-31T07:25:16;0.10;;;0.10;;
22841;SDS011;11587;47.064;15.444;2023-08-31T07:27:42;0.20;;;0.20;;
22841;SDS011;11587;47.064;15.444;2023-08-31T07:30:09;0.10;;;0.10;;
22841;SDS011;11587;47.064;15.444;2023-08-31T07:32:35;0.10;;;0.10;;
22841;SDS011;11587;47.064;15.444;2023-08-31T07:35:02;0.10;;;0.10;;
22841;SDS011;11587;47.064;15.444;2023-08-31T07:37:29;0.10;;;0.10;;
22841;SDS011;11587;47.064;15.444;2023-08-31T07:39:55;0.10;;;0.10;;
22841;SDS011;11587;47.064;15.444;2023-08-31T07:42:21;0.10;;;0.10;;
22841;SDS011;11587;47.064;15.444;2023-08-31T07:44:47;0.10;;;0.10;;
22841;SDS011;11587;47.064;15.444;2023-08-31T07:47:13;0.10;;;0.10;;
22841;SDS011;11587;47.064;15.444;2023-08-31T07:49:39;0.10;;;0.10;;
22841;SDS011;11587;47.064;15.444;2023-08-31T07:52:05;0.10;;;0.10;;
22841;SDS011;11587;47.064;15.444;2023-08-31T07:54:33;0.10;;;0.10;;
22841;SDS011;11587;47.064;15.444;2023-08-31T07:56:59;0.10;;;0.10;;
22841;SDS011;11587;47.064;15.444;2023-08-31T07:59:25;0.10;;;0.10;;
22841;SDS011;11587;47.064;15.444;2023-08-31T08:01:52;0.10;;;0.10;;
22841;SDS011;11587;47.064;15.444;2023-08-31T08:04:18;0.10;;;0.10;;
22841;SDS011;11587;47.064;15.444;2023-08-31T08:06:44;0.10;;;0.10;;
22841;SDS011;11587;47.064;15.444;2023-08-31T08:09:10;0.10;;;0.10;;
22841;SDS011;11587;47.064;15.444;2023-08-31T08:11:37;0.10;;;0.10;;
22841;SDS011;11587;47.064;15.444;2023-08-31T08:14:03;0.10;;;0.10;;
22841;SDS011;11587;47.064;15.444;2023-08-31T08:16:29;0.10;;;0.10;;
22841;SDS011;11587;47.064;15.444;2023-08-31T08:18:55;0.10;;;0.10;;
22841;SDS011;11587;47.064;15.444;2023-08-31T08:21:21;0.10;;;0.10;;
22841;SDS011;11587;47.064;15.444;2023-08-31T08:23:47;0.10;;;0.10;;
22841;SDS011;11587;47.064;15.444;2023-08-31T08:26:15;0.10;;;0.10;;
22841;SDS011;11587;47.064;15.444;2023-08-31T08:28:41;0.10;;;0.10;;
22841;SDS011;11587;47.064;15.444;2023-08-31T08:31:07;0.10;;;0.10;;
22841;SDS011;11587;47.064;15.444;2023-08-31T08:33:33;0.10;;;0.10;;
22841;SDS011;11587;47.064;15.444;2023-08-31T08:36:00;0.20;;;0.20;;
22841;SDS011;11587;47.064;15.444;2023-08-31T08:38:27;0.10;;;0.10;;
22841;SDS011;11587;47.064;15.444;2023-08-31T08:43:56;0.10;;;0.10;;
22841;SDS011;11587;47.064;15.444;2023-08-31T08:46:29;0.10;;;0.10;;
22841;SDS011;11587;47.064;15.444;2023-08-31T08:48:59;0.10;;;0.10;;
22841;SDS011;11587;47.064;15.444;2023-08-31T08:51:40;0.10;;;0.10;;
22841;SDS011;11587;47.064;15.444;2023-08-31T08:54:09;0.10;;;0.10;;
22841;SDS011;11587;47.064;15.444;2023-08-31T08:56:59;0.10;;;0.10;;
22841;SDS011;11587;47.064;15.444;2023-08-31T08:59:34;0.08;;;0.08;;
22841;SDS011;11587;47.064;15.444;2023-08-31T09:02:00;0.10;;;0.10;;
22841;SDS011;11587;47.064;15.444;2023-08-31T09:04:28;0.10;;;0.10;;
22841;SDS011;11587;47.064;15.444;2023-08-31T09:06:54;0.10;;;0.10;;
22841;SDS011;11587;47.064;15.444;2023-08-31T09:09:20;0.10;;;0.10;;
22841;SDS011;11587;47.064;15.444;2023-08-31T09:11:46;0.10;;;0.10;;
22841;SDS011;11587;47.064;15.444;2023-08-31T09:14:16;0.10;;;0.10;;
22841;SDS011;11587;47.064;15.444;2023-08-31T09:16:45;0.10;;;0.10;;
22841;SDS011;11587;47.064;15.444;2023-08-31T09:19:21;0.10;;;0.10;;
22841;SDS011;11587;47.064;15.444;2023-08-31T09:21:52;0.10;;;0.10;;
22841;SDS011;11587;47.064;15.444;2023-08-31T09:24:18;0.10;;;0.10;;
22841;SDS011;11587;47.064;15.444;2023-08-31T09:26:44;0.10;;;0.10;;
22841;SDS011;11587;47.064;15.444;2023-08-31T09:29:14;0.10;;;0.10;;
22841;SDS011;11587;47.064;15.444;2023-08-31T09:31:44;0.00;;;0.00;;
22841;SDS011;11587;47.064;15.444;2023-08-31T09:34:11;0.00;;;0.00;;
22841;SDS011;11587;47.064;15.444;2023-08-31T09:36:37;0.00;;;0.00;;
22841;SDS011;11587;47.064;15.444;2023-08-31T09:39:04;0.00;;;0.00;;
22841;SDS011;11587;47.064;15.444;2023-08-31T09:41:31;0.05;;;0.05;;
22841;SDS011;11587;47.064;15.444;2023-08-31T09:44:05;0.00;;;0.00;;
22841;SDS011;11587;47.064;15.444;2023-08-31T09:46:40;0.00;;;0.00;;
22841;SDS011;11587;47.064;15.444;2023-08-31T09:49:06;0.10;;;0.10;;
22841;SDS011;11587;47.064;15.444;2023-08-31T09:51:33;0.10;;;0.10;;
22841;SDS011;11587;47.064;15.444;2023-08-31T09:53:59;0.00;;;0.00;;
22841;SDS011;11587;47.064;15.444;2023-08-31T09:56:25;0.03;;;0.03;;
22841;SDS011;11587;47.064;15.444;2023-08-31T09:58:53;0.10;;;0.10;;
22841;SDS011;11587;47.064;15.444;2023-08-31T10:01:20;0.10;;;0.10;;
22841;SDS011;11587;47.064;15.444;2023-08-31T10:03:46;0.10;;;0.10;;
22841;SDS011;11587;47.064;15.444;2023-08-31T10:06:12;0.00;;;0.00;;
22841;SDS011;11587;47.064;15.444;2023-08-31T10:08:39;0.10;;;0.10;;
22841;SDS011;11587;47.064;15.444;2023-08-31T10:11:05;0.10;;;0.10;;
22841;SDS011;11587;47.064;15.444;2023-08-31T10:13:31;0.10;;;0.10;;
22841;SDS011;11587;47.064;15.444;2023-08-31T10:16:00;0.10;;;0.10;;
22841;SDS011;11587;47.064;15.444;2023-08-31T10:18:26;0.10;;;0.10;;
22841;SDS011;11587;47.064;15.444;2023-08-31T10:20:52;0.10;;;0.10;;
22841;SDS011;11587;47.064;15.444;2023-08-31T10:23:18;0.10;;;0.10;;
22841;SDS011;11587;47.064;15.444;2023-08-31T10:28:20;0.10;;;0.10;;
22841;SDS011;11587;47.064;15.444;2023-08-31T10:31:05;0.05;;;0.05;;
22841;SDS011;11587;47.064;15.444;2023-08-31T10:33:32;0.00;;;0.00;;
22841;SDS011;11587;47.064;15.444;2023-08-31T10:35:58;0.10;;;0.10;;
22841;SDS011;11587;47.064;15.444;2023-08-31T10:43:43;0.00;;;0.00;;
22841;SDS011;11587;47.064;15.444;2023-08-31T10:51:27;0.00;;;0.00;;
22841;SDS011;11587;47.064;15.444;2023-08-31T10:54:06;0.00;;;0.00;;
22841;SDS011;11587;47.064;15.444;2023-08-31T10:56:38;0.00;;;0.00;;
22841;SDS011;11587;47.064;15.444;2023-08-31T10:59:04;0.00;;;0.00;;
22841;SDS011;11587;47.064;15.444;2023-08-31T11:04:15;0.00;;;0.00;;
22841;SDS011;11587;47.064;15.444;2023-08-31T11:06:40;0.00;;;0.00;;
22841;SDS011;11587;47.064;15.444;2023-08-31T11:09:06;0.00;;;0.00;;
22841;SDS011;11587;47.064;15.444;2023-08-31T11:11:39;0.00;;;0.00;;
22841;SDS011;11587;47.064;15.444;2023-08-31T11:14:05;0.00;;;0.00;;
22841;SDS011;11587;47.064;15.444;2023-08-31T11:16:31;0.00;;;0.00;;
22841;SDS011;11587;47.064;15.444;2023-08-31T11:18:57;0.00;;;0.00;;
22841;SDS011;11587;47.064;15.444;2023-08-31T11:21:23;0.00;;;0.00;;
22841;SDS011;11587;47.064;15.444;2023-08-31T11:23:49;0.00;;;0.00;;
22841;SDS011;11587;47.064;15.444;2023-08-31T11:26:17;0.00;;;0.00;;
22841;SDS011;11587;47.064;15.444;2023-08-31T11:28:44;0.00;;;0.00;;
22841;SDS011;11587;47.064;15.444;2023-08-31T11:31:12;0.00;;;0.00;;
22841;SDS011;11587;47.064;15.444;2023-08-31T11:33:38;0.00;;;0.00;;
22841;SDS011;11587;47.064;15.444;2023-08-31T11:36:06;0.00;;;0.00;;
22841;SDS011;11587;47.064;15.444;2023-08-31T11:38:32;0.00;;;0.00;;
22841;SDS011;11587;47.064;15.444;2023-08-31T11:40:58;0.00;;;0.00;;
22841;SDS011;11587;47.064;15.444;2023-08-31T11:43:26;0.00;;;0.00;;
22841;SDS011;11587;47.064;15.444;2023-08-31T11:45:52;0.00;;;0.00;;
22841;SDS011;11587;47.064;15.444;2023-08-31T11:48:18;0.00;;;0.00;;
22841;SDS011;11587;47.064;15.444;2023-08-31T11:50:44;0.00;;;0.00;;
22841;SDS011;11587;47.064;15.444;2023-08-31T11:53:10;0.00;;;0.00;;
22841;SDS011;11587;47.064;15.444;2023-08-31T11:55:36;0.00;;;0.00;;
22841;SDS011;11587;47.064;15.444;2023-08-31T11:58:15;0.00;;;0.00;;
22841;SDS011;11587;47.064;15.444;2023-08-31T12:00:42;0.00;;;0.00;;
22841;SDS011;11587;47.064;15.444;2023-08-31T12:03:08;0.00;;;0.00;;
22841;SDS011;11587;47.064;15.444;2023-08-31T12:05:44;0.00;;;0.00;;
22841;SDS011;11587;47.064;15.444;2023-08-31T12:08:11;0.00;;;0.00;;
22841;SDS011;11587;47.064;15.444;2023-08-31T12:10:40;0.00;;;0.00;;
22841;SDS011;11587;47.064;15.444;2023-08-31T12:15:34;0.00;;;0.00;;
22841;SDS011;11587;47.064;15.444;2023-08-31T12:18:10;0.00;;;0.00;;
22841;SDS011;11587;47.064;15.444;2023-08-31T12:20:46;0.00;;;0.00;;
22841;SDS011;11587;47.064;15.444;2023-08-31T12:23:12;0.00;;;0.00;;
22841;SDS011;11587;47.064;15.444;2023-08-31T12:26:13;0.00;;;0.00;;
22841;SDS011;11587;47.064;15.444;2023-08-31T12:28:33;0.00;;;0.00;;
22841;SDS011;11587;47.064;15.444;2023-08-31T12:30:59;0.00;;;0.00;;
22841;SDS011;11587;47.064;15.444;2023-08-31T12:33:25;0.00;;;0.00;;
22841;SDS011;11587;47.064;15.444;2023-08-31T12:35:51;0.00;;;0.00;;
22841;SDS011;11587;47.064;15.444;2023-08-31T12:38:17;0.00;;;0.00;;
22841;SDS011;11587;47.064;15.444;2023-08-31T12:40:44;0.00;;;0.00;;
22841;SDS011;11587;47.064;15.444;2023-08-31T12:43:10;0.00;;;0.00;;
22841;SDS011;11587;47.064;15.444;2023-08-31T12:45:37;0.00;;;0.00;;
22841;SDS011;11587;47.064;15.444;2023-08-31T12:48:04;0.00;;;0.00;;
22841;SDS011;11587;47.064;15.444;2023-08-31T12:50:30;0.00;;;0.00;;
22841;SDS011;11587;47.064;15.444;2023-08-31T12:52:56;0.00;;;0.00;;
22841;SDS011;11587;47.064;15.444;2023-08-31T12:55:23;0.00;;;0.00;;
22841;SDS011;11587;47.064;15.444;2023-08-31T12:57:52;0.00;;;0.00;;
22841;SDS011;11587;47.064;15.444;2023-08-31T13:00:27;0.00;;;0.00;;
22841;SDS011;11587;47.064;15.444;2023-08-31T13:02:53;0.00;;;0.00;;
22841;SDS011;11587;47.064;15.444;2023-08-31T13:05:20;0.00;;;0.00;;
22841;SDS011;11587;47.064;15.444;2023-08-31T13:07:48;0.00;;;0.00;;
22841;SDS011;11587;47.064;15.444;2023-08-31T13:10:14;0.00;;;0.00;;
22841;SDS011;11587;47.064;15.444;2023-08-31T13:12:41;0.00;;;0.00;;
22841;SDS011;11587;47.064;15.444;2023-08-31T13:15:07;0.00;;;0.00;;
22841;SDS011;11587;47.064;15.444;2023-08-31T13:17:33;0.00;;;0.00;;
22841;SDS011;11587;47.064;15.444;2023-08-31T13:20:00;0.00;;;0.00;;
22841;SDS011;11587;47.064;15.444;2023-08-31T13:22:28;0.00;;;0.00;;
22841;SDS011;11587;47.064;15.444;2023-08-31T13:24:59;0.00;;;0.00;;
22841;SDS011;11587;47.064;15.444;2023-08-31T13:27:25;0.00;;;0.00;;
22841;SDS011;11587;47.064;15.444;2023-08-31T13:29:51;0.00;;;0.00;;
22841;SDS011;11587;47.064;15.444;2023-08-31T13:32:17;0.00;;;0.00;;
22841;SDS011;11587;47.064;15.444;2023-08-31T13:34:43;0.00;;;0.00;;
22841;SDS011;11587;47.064;15.444;2023-08-31T13:37:09;0.00;;;0.00;;
22841;SDS011;11587;47.064;15.444;2023-08-31T13:39:36;0.00;;;0.00;;
22841;SDS011;11587;47.064;15.444;2023-08-31T13:42:02;0.00;;;0.00;;
22841;SDS011;11587;47.064;15.444;2023-08-31T13:44:28;0.00;;;0.00;;
22841;SDS011;11587;47.064;15.444;2023-08-31T13:46:56;0.00;;;0.00;;
22841;SDS011;11587;47.064;15.444;2023-08-31T13:49:22;0.00;;;0.00;;
22841;SDS011;11587;47.064;15.444;2023-08-31T13:51:48;0.00;;;0.00;;
22841;SDS011;11587;47.064;15.444;2023-08-31T13:54:14;0.00;;;0.00;;
22841;SDS011;11587;47.064;15.444;2023-08-31T13:56:40;0.00;;;0.00;;
22841;SDS011;11587;47.064;15.444;2023-08-31T13:59:07;0.00;;;0.00;;
22841;SDS011;11587;47.064;15.444;2023-08-31T14:01:34;0.00;;;0.00;;
22841;SDS011;11587;47.064;15.444;2023-08-31T14:04:01;0.00;;;0.00;;
22841;SDS011;11587;47.064;15.444;2023-08-31T14:06:28;0.00;;;0.00;;
22841;SDS011;11587;47.064;15.444;2023-08-31T14:08:55;0.00;;;0.00;;
22841;SDS011;11587;47.064;15.444;2023-08-31T14:11:21;0.00;;;0.00;;
22841;SDS011;11587;47.064;15.444;2023-08-31T14:13:47;0.00;;;0.00;;
22841;SDS011;11587;47.064;15.444;2023-08-31T14:16:14;0.00;;;0.00;;
22841;SDS011;11587;47.064;15.444;2023-08-31T14:18:40;0.00;;;0.00;;
22841;SDS011;11587;47.064;15.444;2023-08-31T14:21:06;0.00;;;0.00;;
22841;SDS011;11587;47.064;15.444;2023-08-31T14:23:32;0.00;;;0.00;;
22841;SDS011;11587;47.064;15.444;2023-08-31T14:26:01;0.00;;;0.00;;
22841;SDS011;11587;47.064;15.444;2023-08-31T14:28:28;0.00;;;0.00;;
22841;SDS011;11587;47.064;15.444;2023-08-31T14:30:54;0.00;;;0.00;;
22841;SDS011;11587;47.064;15.444;2023-08-31T14:33:20;0.00;;;0.00;;
22841;SDS011;11587;47.064;15.444;2023-08-31T14:35:49;0.00;;;0.00;;
22841;SDS011;11587;47.064;15.444;2023-08-31T14:38:20;0.00;;;0.00;;
22841;SDS011;11587;47.064;15.444;2023-08-31T14:40:47;0.00;;;0.00;;
22841;SDS011;11587;47.064;15.444;2023-08-31T14:43:14;0.00;;;0.00;;
22841;SDS011;11587;47.064;15.444;2023-08-31T14:45:40;0.00;;;0.00;;
22841;SDS011;11587;47.064;15.444;2023-08-31T14:48:08;0.00;;;0.00;;
22841;SDS011;11587;47.064;15.444;2023-08-31T14:50:34;0.00;;;0.00;;
22841;SDS011;11587;47.064;15.444;2023-08-31T14:53:01;0.00;;;0.00;;
22841;SDS011;11587;47.064;15.444;2023-08-31T14:55:27;0.00;;;0.00;;
22841;SDS011;11587;47.064;15.444;2023-08-31T14:57:54;0.00;;;0.00;;
22841;SDS011;11587;47.064;15.444;2023-08-31T15:00:20;0.00;;;0.00;;
22841;SDS011;11587;47.064;15.444;2023-08-31T15:02:47;0.00;;;0.00;;
22841;SDS011;11587;47.064;15.444;2023-08-31T15:05:13;0.00;;;0.00;;
22841;SDS011;11587;47.064;15.444;2023-08-31T15:07:40;0.00;;;0.00;;